Time;durP1;ratioP1;P1;durP2;ratioP2;P2;SDS_P1;SDS_P2;PMS_P1;PMS_P2;Temp;Humidity;BMP_temperature;BMP_pressure;BME280_temperature;BME280_humidity;BME280_pressure;Samples;Min_cycle;Max_cycle;Signal;HPM_P1;HPM_P2
2022/07/14 00:02:16;;;;;;;1.87;1.53;;;22.70;83.70;;;;;;5047426;28;20190;-83
2022/07/14 00:04:41;;;;;;;1.47;1.37;;;22.60;83.70;;;;;;5049800;28;20176;-83
2022/07/14 00:07:07;;;;;;;1.57;1.53;;;22.60;83.80;;;;;;5046188;28;20685;-84
2022/07/14 00:09:33;;;;;;;1.53;1.53;;;22.50;83.80;;;;;;5067520;28;20219;-83
2022/07/14 00:11:58;;;;;;;4.23;1.77;;;22.50;83.60;;;;;;5050874;28;20183;-83
2022/07/14 00:14:24;;;;;;;2.60;1.70;;;22.40;83.60;;;;;;5068204;28;20179;-83
2022/07/14 00:16:50;;;;;;;1.30;1.20;;;22.40;83.80;;;;;;5051208;28;20183;-83
2022/07/14 00:19:16;;;;;;;1.43;1.33;;;22.30;83.70;;;;;;5050898;28;20195;-84
2022/07/14 00:21:42;;;;;;;1.93;1.83;;;22.20;83.70;;;;;;5053536;28;20442;-83
2022/07/14 00:24:11;;;;;;;2.80;2.20;;;22.20;83.70;;;;;;5067306;28;20537;-84
2022/07/14 00:26:36;;;;;;;2.63;2.10;;;22.20;83.70;;;;;;5050775;28;20554;-83
2022/07/14 00:29:02;;;;;;;2.67;2.30;;;22.20;83.30;;;;;;5050101;28;20438;-83
2022/07/14 00:31:27;;;;;;;1.73;1.70;;;22.10;83.30;;;;;;5067271;28;20180;-83
2022/07/14 00:33:53;;;;;;;1.50;1.40;;;22.10;83.60;;;;;;5050479;28;20171;-83
2022/07/14 00:36:18;;;;;;;1.97;1.87;;;22.10;83.60;;;;;;5050697;28;20194;-84
2022/07/14 00:38:44;;;;;;;2.50;1.97;;;22.10;83.90;;;;;;5052118;28;20199;-83
2022/07/14 00:41:10;;;;;;;1.67;1.20;;;22.00;83.90;;;;;;5054392;28;20168;-83
2022/07/14 00:43:35;;;;;;;4.43;1.80;;;22.00;83.90;;;;;;5050309;28;20187;-83
2022/07/14 00:46:01;;;;;;;1.47;1.13;;;22.00;84.20;;;;;;5050331;28;20187;-83
2022/07/14 00:48:27;;;;;;;1.20;1.20;;;22.00;84.20;;;;;;5049506;28;20199;-83
2022/07/14 00:50:53;;;;;;;1.50;1.40;;;21.90;84.40;;;;;;5049965;28;20660;-83
2022/07/14 00:53:19;;;;;;;1.30;1.23;;;21.90;84.40;;;;;;5048141;28;20430;-83
2022/07/14 00:55:45;;;;;;;1.70;1.60;;;21.90;84.50;;;;;;5040820;28;20179;-83
2022/07/14 00:58:11;;;;;;;2.90;2.33;;;21.80;84.40;;;;;;5052381;28;20854;-83
2022/07/14 01:00:39;;;;;;;1.60;1.50;;;21.80;84.40;;;;;;5062221;28;20186;-86
2022/07/14 01:03:05;;;;;;;1.73;1.63;;;21.80;84.60;;;;;;5052072;28;20443;-83
2022/07/14 01:05:31;;;;;;;2.00;1.70;;;21.70;84.70;;;;;;5068127;28;20434;-86
2022/07/14 01:07:58;;;;;;;1.50;1.43;;;21.70;84.80;;;;;;5052946;28;20545;-83
2022/07/14 01:10:24;;;;;;;1.50;1.40;;;21.70;85.20;;;;;;5058092;28;20491;-86
2022/07/14 01:12:50;;;;;;;1.30;1.20;;;21.70;85.30;;;;;;5071725;28;20421;-83
2022/07/14 01:15:20;;;;;;;1.50;1.40;;;21.60;85.60;;;;;;5069192;28;20922;-83
2022/07/14 01:17:47;;;;;;;2.20;1.93;;;21.60;85.70;;;;;;5041392;28;20396;-83
2022/07/14 01:20:14;;;;;;;2.17;1.67;;;21.60;85.70;;;;;;5069631;28;20449;-82
2022/07/14 01:22:40;;;;;;;1.90;1.80;;;21.50;86.00;;;;;;5053149;28;20425;-82
2022/07/14 01:25:07;;;;;;;1.37;1.33;;;21.50;86.10;;;;;;5051739;28;20425;-83
2022/07/14 01:27:36;;;;;;;3.83;2.87;;;21.50;86.40;;;;;;5052884;28;20816;-82
2022/07/14 01:30:04;;;;;;;1.60;1.50;;;21.40;86.60;;;;;;5053285;28;20441;-82
2022/07/14 01:32:29;;;;;;;1.63;1.60;;;21.30;87.20;;;;;;5052699;28;20599;-83
2022/07/14 01:34:55;;;;;;;1.50;1.40;;;21.30;87.10;;;;;;5070982;28;20413;-83
2022/07/14 01:37:21;;;;;;;3.03;2.03;;;21.20;87.70;;;;;;5049236;28;20217;-83
2022/07/14 01:39:47;;;;;;;3.77;1.97;;;21.20;87.70;;;;;;5053058;28;20498;-83
2022/07/14 01:42:13;;;;;;;5.93;1.80;;;21.10;87.90;;;;;;5052637;28;21029;-83
2022/07/14 01:44:39;;;;;;;2.20;2.00;;;21.10;88.00;;;;;;5052750;28;20576;-83
2022/07/14 01:47:05;;;;;;;3.00;2.40;;;21.00;88.10;;;;;;5052177;28;20202;-83
2022/07/14 01:49:30;;;;;;;5.17;2.00;;;21.00;88.20;;;;;;5052981;28;20417;-83
2022/07/14 01:51:56;;;;;;;4.43;2.57;;;21.00;88.40;;;;;;5052323;28;20175;-83
2022/07/14 01:54:21;;;;;;;5.30;2.13;;;20.90;88.50;;;;;;5066780;28;20183;-83
2022/07/14 01:56:47;;;;;;;1.23;1.13;;;20.90;88.60;;;;;;5052346;28;20285;-83
2022/07/14 01:59:12;;;;;;;3.37;2.60;;;20.90;88.80;;;;;;5052060;28;20585;-83
2022/07/14 02:01:41;;;;;;;2.43;2.23;;;20.90;89.00;;;;;;5052406;28;20183;-83
2022/07/14 02:04:09;;;;;;;2.47;1.40;;;20.90;89.10;;;;;;5051971;28;20235;-83
2022/07/14 02:06:37;;;;;;;3.20;2.40;;;20.80;89.10;;;;;;5070107;28;20750;-83
2022/07/14 02:09:03;;;;;;;1.97;1.87;;;20.80;89.20;;;;;;5051817;28;20476;-82
2022/07/14 02:14:13;;;;;;;1.93;1.83;;;20.80;89.50;;;;;;5074858;28;20451;-82
2022/07/14 02:16:38;;;;;;;1.60;1.50;;;20.70;89.40;;;;;;5074014;28;20902;-83
2022/07/14 02:19:04;;;;;;;5.53;2.70;;;20.70;89.60;;;;;;5056240;28;20558;-83
2022/07/14 02:21:30;;;;;;;1.43;1.33;;;20.70;89.90;;;;;;5056278;28;20186;-83
2022/07/14 02:23:56;;;;;;;3.23;2.17;;;20.60;90.10;;;;;;5056024;28;20646;-82
2022/07/14 02:26:22;;;;;;;1.70;1.60;;;20.60;89.90;;;;;;5052437;28;20762;-83
2022/07/14 02:28:48;;;;;;;1.83;1.70;;;20.60;90.20;;;;;;5070934;28;20437;-83
2022/07/14 02:31:13;;;;;;;1.57;1.47;;;20.50;90.20;;;;;;5056835;28;20190;-83
2022/07/14 02:33:40;;;;;;;1.40;1.30;;;20.50;90.50;;;;;;5056050;28;20167;-82
2022/07/14 02:36:06;;;;;;;1.33;1.23;;;20.50;90.50;;;;;;5055586;28;20418;-82
2022/07/14 02:38:32;;;;;;;2.40;1.40;;;20.50;90.50;;;;;;5056922;28;20801;-83
2022/07/14 02:40:58;;;;;;;2.03;1.90;;;20.50;90.50;;;;;;5056185;28;20540;-81
2022/07/14 02:43:23;;;;;;;1.70;1.67;;;20.50;90.60;;;;;;5058306;28;20243;-82
2022/07/14 02:45:49;;;;;;;2.00;1.87;;;20.40;91.30;;;;;;5059868;28;20171;-82
2022/07/14 02:48:15;;;;;;;1.40;1.30;;;20.40;91.40;;;;;;5056290;28;20218;-82
2022/07/14 02:50:41;;;;;;;2.00;1.77;;;20.30;91.40;;;;;;5074482;28;20171;-82
2022/07/14 02:53:08;;;;;;;4.73;3.37;;;20.30;91.70;;;;;;5074319;28;20413;-82
2022/07/14 02:55:37;;;;;;;3.87;1.97;;;20.20;91.70;;;;;;5056331;28;20428;-82
2022/07/14 02:58:04;;;;;;;1.40;1.30;;;20.20;91.90;;;;;;5073387;28;21074;-82
2022/07/14 03:00:30;;;;;;;3.13;2.00;;;20.10;92.00;;;;;;5056403;28;20510;-82
2022/07/14 03:02:56;;;;;;;3.03;1.97;;;20.00;92.30;;;;;;5055417;28;20477;-82
2022/07/14 03:05:23;;;;;;;2.30;1.67;;;20.00;92.10;;;;;;5071356;28;20219;-82
2022/07/14 03:07:48;;;;;;;5.97;1.97;;;19.90;92.40;;;;;;5052545;28;21016;-82
2022/07/14 03:10:14;;;;;;;3.20;2.17;;;19.90;92.50;;;;;;5056160;28;20425;-82
2022/07/14 03:12:40;;;;;;;3.70;2.80;;;19.90;92.80;;;;;;5055028;28;20186;-82
2022/07/14 03:15:07;;;;;;;2.83;1.37;;;19.80;93.10;;;;;;5072549;28;20632;-82
2022/07/14 03:17:33;;;;;;;2.23;1.97;;;19.80;93.40;;;;;;5052448;28;20200;-82
2022/07/14 03:19:58;;;;;;;2.23;2.00;;;19.80;93.60;;;;;;5046385;28;20429;-82
2022/07/14 03:22:24;;;;;;;2.40;1.90;;;19.80;93.90;;;;;;5071148;28;20419;-82
2022/07/14 03:24:49;;;;;;;9.47;2.27;;;19.70;94.00;;;;;;5054363;28;20240;-82
2022/07/14 03:27:15;;;;;;;1.90;1.70;;;19.70;94.10;;;;;;5055288;28;20252;-82
2022/07/14 03:29:41;;;;;;;3.23;1.97;;;19.70;94.30;;;;;;5055445;28;20179;-82
2022/07/14 03:32:07;;;;;;;2.13;1.97;;;19.60;94.40;;;;;;5055146;28;20203;-82
2022/07/14 03:34:33;;;;;;;2.50;1.97;;;19.60;94.30;;;;;;5073215;28;20421;-82
2022/07/14 03:36:59;;;;;;;1.53;1.47;;;19.60;94.10;;;;;;5053830;28;20190;-82
2022/07/14 03:39:28;;;;;;;1.30;1.30;;;19.60;94.50;;;;;;5064921;28;20199;-81
2022/07/14 03:41:58;;;;;;;1.63;1.20;;;19.50;94.40;;;;;;5054809;28;20421;-82
2022/07/14 03:44:37;;;;;;;2.53;1.50;;;19.50;94.40;;;;;;5055015;28;20417;-82
2022/07/14 03:47:08;;;;;;;2.37;2.17;;;19.50;94.10;;;;;;5050511;28;20472;-82
2022/07/14 03:49:37;;;;;;;2.73;1.87;;;19.40;93.80;;;;;;5064248;28;20432;-82
2022/07/14 03:52:09;;;;;;;1.90;1.10;;;19.40;93.70;;;;;;5060147;28;20470;-82
2022/07/14 03:54:37;;;;;;;1.30;1.20;;;19.40;93.40;;;;;;5070336;28;20423;-83
2022/07/14 03:57:19;;;;;;;1.40;1.30;;;19.40;93.20;;;;;;5072332;28;20413;-83
2022/07/14 03:59:48;;;;;;;2.20;1.40;;;19.40;93.00;;;;;;5054623;28;20413;-83
2022/07/14 04:02:20;;;;;;;1.93;1.83;;;19.40;93.20;;;;;;5053667;28;20437;-82
2022/07/14 04:04:47;;;;;;;1.83;1.77;;;19.40;93.30;;;;;;5058240;28;20424;-82
2022/07/14 04:07:19;;;;;;;2.07;1.73;;;19.40;93.20;;;;;;5072683;28;20457;-85
2022/07/14 04:09:49;;;;;;;1.37;1.30;;;19.50;93.20;;;;;;5072098;28;20492;-82
2022/07/14 04:12:18;;;;;;;1.30;1.20;;;19.50;93.40;;;;;;5047634;28;20724;-82
2022/07/14 04:14:49;;;;;;;2.23;1.43;;;19.50;93.10;;;;;;5048961;28;20426;-82
2022/07/14 04:17:17;;;;;;;1.57;1.50;;;19.50;92.80;;;;;;5066384;28;20515;-84
2022/07/14 04:19:48;;;;;;;1.47;1.23;;;19.50;92.60;;;;;;5055476;28;20789;-82
2022/07/14 04:22:18;;;;;;;1.00;1.00;;;19.50;92.60;;;;;;5050733;28;20432;-83
2022/07/14 04:24:50;;;;;;;1.10;1.00;;;19.50;92.70;;;;;;5049680;28;20517;-83
2022/07/14 04:27:16;;;;;;;1.13;1.10;;;19.50;92.50;;;;;;5071972;28;20457;-84
2022/07/14 04:29:46;;;;;;;1.47;1.30;;;19.50;92.40;;;;;;5066685;28;20405;-84
2022/07/14 04:32:16;;;;;;;1.50;1.40;;;19.50;92.60;;;;;;5069775;28;20426;-83
2022/07/14 04:34:44;;;;;;;1.30;1.23;;;19.50;92.70;;;;;;5050419;28;20497;-82
2022/07/14 04:37:10;;;;;;;2.20;1.80;;;19.50;92.80;;;;;;5070344;28;20419;-84
2022/07/14 04:39:36;;;;;;;1.77;1.47;;;19.60;92.60;;;;;;5070674;28;20440;-84
2022/07/14 04:42:03;;;;;;;1.40;1.30;;;19.60;92.40;;;;;;5055942;28;20418;-82
2022/07/14 04:44:29;;;;;;;1.50;1.40;;;19.60;92.70;;;;;;5069878;28;20183;-84
2022/07/14 04:46:54;;;;;;;1.43;1.20;;;19.60;92.90;;;;;;5048943;28;20510;-83
2022/07/14 04:52:04;;;;;;;1.40;1.30;;;19.60;93.20;;;;;;5062473;28;20213;-83
2022/07/14 04:54:32;;;;;;;1.53;1.43;;;19.60;93.40;;;;;;5071743;28;20781;-83
2022/07/14 04:56:58;;;;;;;1.20;1.10;;;19.60;93.20;;;;;;5072822;28;20480;-84
2022/07/14 04:59:24;;;;;;;1.30;1.20;;;19.60;93.30;;;;;;5072685;28;20433;-83
2022/07/14 05:01:49;;;;;;;1.33;1.23;;;19.60;92.00;;;;;;5056276;28;20448;-82
2022/07/14 05:04:15;;;;;;;1.17;1.10;;;19.60;92.30;;;;;;5042376;28;20184;-85
2022/07/14 05:06:40;;;;;;;4.83;2.13;;;19.50;90.60;;;;;;5071436;28;20210;-83
2022/07/14 05:09:06;;;;;;;1.10;1.00;;;19.50;89.60;;;;;;5072082;28;20892;-84
2022/07/14 05:11:31;;;;;;;1.23;1.17;;;19.50;89.40;;;;;;5055546;28;20581;-84
2022/07/14 05:13:57;;;;;;;1.20;1.10;;;19.40;89.50;;;;;;5053475;28;20166;-85
2022/07/14 05:16:23;;;;;;;1.30;1.20;;;19.40;88.60;;;;;;5055613;28;20262;-84
2022/07/14 05:18:49;;;;;;;1.63;1.53;;;19.40;88.80;;;;;;5051873;28;20211;-84
2022/07/14 05:21:15;;;;;;;1.40;1.30;;;19.30;89.00;;;;;;5052631;28;20693;-84
2022/07/14 05:23:41;;;;;;;1.47;1.33;;;19.30;89.20;;;;;;5068786;28;20417;-84
2022/07/14 05:26:13;;;;;;;1.90;1.80;;;19.20;89.70;;;;;;5069271;28;20194;-84
2022/07/14 05:28:40;;;;;;;3.93;1.90;;;19.20;90.10;;;;;;5052421;28;20438;-84
2022/07/14 05:31:06;;;;;;;1.53;1.43;;;19.20;90.20;;;;;;5045885;28;20430;-85
2022/07/14 05:33:32;;;;;;;9.00;1.77;;;19.20;90.00;;;;;;5048342;28;20413;-83
2022/07/14 05:35:58;;;;;;;7.90;1.60;;;19.20;90.00;;;;;;5052220;28;21043;-84
2022/07/14 05:38:23;;;;;;;1.20;0.90;;;19.20;89.80;;;;;;5052789;28;20233;-83
2022/07/14 05:40:50;;;;;;;1.53;1.10;;;19.10;89.40;;;;;;5052754;28;20217;-83
2022/07/14 05:43:16;;;;;;;2.80;1.97;;;19.10;89.60;;;;;;5068989;28;20232;-83
2022/07/14 05:45:42;;;;;;;2.00;1.20;;;19.10;90.00;;;;;;5052034;28;20769;-84
2022/07/14 05:48:07;;;;;;;9.03;2.03;;;19.10;90.30;;;;;;5068703;28;20234;-83
2022/07/14 05:50:33;;;;;;;3.10;2.27;;;19.10;90.10;;;;;;5052729;28;20846;-84
2022/07/14 05:52:58;;;;;;;1.77;1.73;;;19.10;90.50;;;;;;5052646;28;20190;-83
2022/07/14 05:55:24;;;;;;;2.33;1.53;;;19.20;91.00;;;;;;5052582;28;20673;-85
2022/07/14 05:57:51;;;;;;;1.43;1.40;;;19.30;90.90;;;;;;5052867;28;20210;-84
2022/07/14 06:00:17;;;;;;;1.77;1.60;;;19.30;91.10;;;;;;5041691;28;20232;-83
2022/07/14 06:02:43;;;;;;;1.40;1.40;;;19.30;91.10;;;;;;5069519;28;20413;-83
2022/07/14 06:05:10;;;;;;;1.63;1.53;;;19.30;91.70;;;;;;5051897;28;20915;-83
2022/07/14 06:07:39;;;;;;;3.63;2.37;;;19.40;91.60;;;;;;5052020;28;20847;-83
2022/07/14 06:10:05;;;;;;;2.70;1.80;;;19.40;91.40;;;;;;5051931;28;21013;-83
2022/07/14 06:12:32;;;;;;;2.33;1.60;;;19.40;91.60;;;;;;5052488;28;20462;-83
2022/07/14 06:14:57;;;;;;;1.17;1.17;;;19.40;91.90;;;;;;5078217;28;20408;-84
2022/07/14 06:17:23;;;;;;;1.63;1.53;;;19.40;91.90;;;;;;5057533;28;21109;-83
2022/07/14 06:19:49;;;;;;;1.37;1.27;;;19.50;92.10;;;;;;5063114;28;20590;-83
2022/07/14 06:22:14;;;;;;;2.10;1.27;;;19.50;92.20;;;;;;5070066;28;20463;-83
2022/07/14 06:24:43;;;;;;;2.93;1.37;;;19.50;92.60;;;;;;5078299;28;20273;-83
2022/07/14 06:27:09;;;;;;;9.37;2.33;;;19.50;92.30;;;;;;5065670;28;20727;-83
2022/07/14 06:29:34;;;;;;;1.30;1.20;;;19.50;92.00;;;;;;5070248;28;20460;-84
2022/07/14 06:32:00;;;;;;;1.10;1.00;;;19.50;92.70;;;;;;5052505;28;20712;-83
2022/07/14 06:34:27;;;;;;;2.40;1.67;;;19.50;92.60;;;;;;5048531;28;20597;-84
2022/07/14 06:36:52;;;;;;;8.83;1.47;;;19.40;92.60;;;;;;5064572;28;20680;-83
2022/07/14 06:39:18;;;;;;;4.60;1.67;;;19.40;92.70;;;;;;5052381;28;20532;-83
2022/07/14 06:41:43;;;;;;;10.63;1.23;;;19.40;92.20;;;;;;5052355;28;20179;-83
2022/07/14 06:44:09;;;;;;;2.10;1.53;;;19.40;92.60;;;;;;5055718;28;20191;-84
2022/07/14 06:46:37;;;;;;;1.67;1.60;;;19.40;92.30;;;;;;5052249;28;20330;-83
2022/07/14 06:49:02;;;;;;;1.27;1.20;;;19.40;92.60;;;;;;5051686;28;20199;-83
2022/07/14 06:51:28;;;;;;;1.60;1.50;;;19.40;92.80;;;;;;5052363;28;20464;-84
2022/07/14 06:53:54;;;;;;;7.63;1.63;;;19.40;93.20;;;;;;5070204;28;20186;-83
2022/07/14 06:56:20;;;;;;;4.40;1.67;;;19.40;92.40;;;;;;5072416;28;20416;-83
2022/07/14 06:58:45;;;;;;;1.70;1.60;;;19.40;92.20;;;;;;5075448;28;20197;-84
2022/07/14 07:01:11;;;;;;;10.57;1.77;;;19.40;92.70;;;;;;5070693;28;20182;-83
2022/07/14 07:03:36;;;;;;;2.53;1.80;;;19.40;92.80;;;;;;5072325;28;20180;-83
2022/07/14 07:08:46;;;;;;;4.97;2.77;;;19.50;92.90;;;;;;5086264;28;20710;-83
2022/07/14 07:11:12;;;;;;;3.57;2.40;;;19.50;93.00;;;;;;5055974;28;20426;-83
2022/07/14 07:13:38;;;;;;;1.67;1.60;;;19.50;93.10;;;;;;5069078;28;20227;-83
2022/07/14 07:16:08;;;;;;;1.17;1.07;;;19.60;93.50;;;;;;5074569;28;20404;-83
2022/07/14 07:18:39;;;;;;;1.40;1.40;;;19.60;93.40;;;;;;5061128;28;20285;-83
2022/07/14 07:21:18;;;;;;;1.37;1.27;;;19.70;92.70;;;;;;5079491;28;20408;-83
2022/07/14 07:23:46;;;;;;;2.30;1.40;;;19.70;92.10;;;;;;5089966;28;20945;-83
2022/07/14 07:26:17;;;;;;;2.30;1.93;;;19.70;92.10;;;;;;5072805;28;20434;-83
2022/07/14 07:28:43;;;;;;;1.63;1.53;;;19.70;92.30;;;;;;5058323;28;20428;-84
2022/07/14 07:31:09;;;;;;;1.73;1.50;;;19.80;92.30;;;;;;5074792;28;20444;-84
2022/07/14 07:33:36;;;;;;;1.33;1.30;;;19.80;92.20;;;;;;5061622;28;20413;-83
2022/07/14 07:36:02;;;;;;;2.67;1.30;;;19.80;92.30;;;;;;5074356;28;20628;-83
2022/07/14 07:38:28;;;;;;;1.93;1.63;;;19.80;91.80;;;;;;5061414;28;20436;-83
2022/07/14 07:40:54;;;;;;;3.13;1.73;;;19.70;92.10;;;;;;5064964;28;20179;-83
2022/07/14 07:43:26;;;;;;;1.50;1.40;;;19.70;92.20;;;;;;5067363;28;20179;-83
2022/07/14 07:45:52;;;;;;;2.30;2.13;;;19.70;92.20;;;;;;5066360;28;20518;-83
2022/07/14 07:48:17;;;;;;;3.93;1.40;;;19.70;92.90;;;;;;5056835;28;21121;-84
2022/07/14 07:50:44;;;;;;;1.50;1.40;;;19.70;92.10;;;;;;5082581;28;20849;-83
2022/07/14 07:53:10;;;;;;;2.40;1.17;;;19.80;92.10;;;;;;5069702;28;20236;-83
2022/07/14 07:55:36;;;;;;;1.73;1.63;;;19.80;91.60;;;;;;5053970;28;20497;-83
2022/07/14 07:58:02;;;;;;;1.20;1.10;;;19.70;91.90;;;;;;5058879;28;20893;-83
2022/07/14 08:00:28;;;;;;;2.60;1.67;;;19.70;92.10;;;;;;5064120;28;20241;-83
2022/07/14 08:02:54;;;;;;;2.70;1.80;;;19.70;92.50;;;;;;5072313;28;20501;-83
2022/07/14 08:05:22;;;;;;;1.80;1.80;;;19.70;92.20;;;;;;5054271;28;20420;-83
2022/07/14 08:07:48;;;;;;;1.40;1.40;;;19.70;92.30;;;;;;5067883;28;20540;-83
2022/07/14 08:10:14;;;;;;;1.07;1.00;;;19.80;92.40;;;;;;5063064;28;20876;-83
2022/07/14 08:12:41;;;;;;;6.30;2.23;;;19.80;92.80;;;;;;5054655;28;20454;-83
2022/07/14 08:15:07;;;;;;;1.57;1.47;;;19.90;92.40;;;;;;5054185;28;20179;-83
2022/07/14 08:17:33;;;;;;;3.27;2.40;;;19.90;92.00;;;;;;5074714;28;20493;-83
2022/07/14 08:19:59;;;;;;;6.83;1.77;;;20.00;92.40;;;;;;5073171;28;20509;-83
2022/07/14 08:22:26;;;;;;;2.53;2.13;;;20.00;92.20;;;;;;5059573;28;20445;-83
2022/07/14 08:24:53;;;;;;;1.10;1.00;;;20.00;91.90;;;;;;5073122;28;20193;-84
2022/07/14 08:27:18;;;;;;;3.00;1.83;;;20.00;91.70;;;;;;5071732;28;20475;-83
2022/07/14 08:29:44;;;;;;;2.60;1.23;;;20.00;91.70;;;;;;5061520;28;20998;-83
2022/07/14 08:32:10;;;;;;;2.97;2.13;;;20.00;91.60;;;;;;5066510;28;20179;-83
2022/07/14 08:34:35;;;;;;;3.50;1.50;;;20.10;91.40;;;;;;5065508;28;20201;-83
2022/07/14 08:37:01;;;;;;;2.20;2.03;;;20.20;90.80;;;;;;5054648;28;20190;-83
2022/07/14 08:39:27;;;;;;;5.43;1.23;;;20.20;91.30;;;;;;5070472;28;20179;-84
2022/07/14 08:41:54;;;;;;;1.53;1.50;;;20.30;91.30;;;;;;5053885;28;20175;-83
2022/07/14 08:44:22;;;;;;;2.30;1.73;;;20.30;91.70;;;;;;5054045;28;20794;-83
2022/07/14 08:46:47;;;;;;;1.20;1.10;;;20.30;91.10;;;;;;5053528;28;20492;-83
2022/07/14 08:49:14;;;;;;;6.30;3.33;;;20.30;91.10;;;;;;5055036;28;20673;-83
2022/07/14 08:51:42;;;;;;;3.27;1.83;;;20.30;91.30;;;;;;5067179;28;20595;-83
2022/07/14 08:54:11;;;;;;;2.00;1.90;;;20.30;91.00;;;;;;5054477;28;20787;-83
2022/07/14 08:56:37;;;;;;;10.83;1.93;;;20.30;91.20;;;;;;5070347;28;20417;-83
2022/07/14 08:59:04;;;;;;;1.20;1.10;;;20.30;90.40;;;;;;5082125;28;20624;-83
2022/07/14 09:01:29;;;;;;;1.77;1.67;;;20.40;90.90;;;;;;5060685;28;20428;-83
2022/07/14 09:03:55;;;;;;;1.43;1.23;;;20.40;90.80;;;;;;5061754;28;20959;-83
2022/07/14 09:06:51;;;;;;;1.73;1.30;;;20.40;90.90;;;;;;5069947;28;20224;-84
2022/07/14 09:09:30;;;;;;;2.63;2.00;;;20.50;90.40;;;;;;5058810;28;20221;-83
2022/07/14 09:11:58;;;;;;;1.80;1.70;;;20.50;90.10;;;;;;5059913;28;20446;-82
2022/07/14 09:15:44;;;;;;;6.80;2.10;;;20.70;90.70;;;;;;5061645;28;20466;-83
2022/07/14 09:17:17;;;;;;;1.70;1.60;;;20.80;90.10;;;;;;5077160;28;20462;-83
2022/07/14 09:20:07;;;;;;;2.90;1.10;;;21.00;89.60;;;;;;5061476;28;20580;-83
2022/07/14 09:22:36;;;;;;;1.33;1.23;;;21.10;90.20;;;;;;5060941;28;21012;-83
2022/07/14 09:25:06;;;;;;;6.00;2.13;;;21.10;90.20;;;;;;5057942;28;20417;-83
2022/07/14 09:27:33;;;;;;;2.87;2.53;;;21.20;90.50;;;;;;5070935;28;21056;-83
2022/07/14 09:29:59;;;;;;;2.20;1.70;;;21.20;89.80;;;;;;5074032;28;20450;-83
2022/07/14 09:32:51;;;;;;;1.73;1.67;;;21.20;89.50;;;;;;5073945;28;20417;-83
2022/07/14 09:35:23;;;;;;;1.80;1.17;;;21.10;89.40;;;;;;5070284;28;20199;-83
2022/07/14 09:37:50;;;;;;;4.33;1.53;;;21.10;89.30;;;;;;5081979;28;20841;-83
2022/07/14 09:40:28;;;;;;;1.63;1.23;;;21.10;88.70;;;;;;5067904;28;20504;-83
2022/07/14 09:43:02;;;;;;;2.10;1.70;;;21.00;89.10;;;;;;5066633;28;20412;-83
2022/07/14 09:45:36;;;;;;;1.37;1.03;;;21.00;89.50;;;;;;5041633;28;20840;-83
2022/07/14 09:48:03;;;;;;;1.30;1.20;;;21.10;89.20;;;;;;5082661;28;20474;-83
2022/07/14 09:50:33;;;;;;;1.90;1.70;;;21.20;89.10;;;;;;5070842;28;20417;-83
2022/07/14 09:53:12;;;;;;;1.50;1.40;;;21.30;89.10;;;;;;5057147;28;20425;-82
2022/07/14 09:55:39;;;;;;;1.10;1.00;;;21.40;88.60;;;;;;5070267;28;20421;-83
2022/07/14 09:58:07;;;;;;;1.57;1.57;;;21.50;88.60;;;;;;5073717;28;20805;-83
2022/07/14 10:00:34;;;;;;;2.77;1.43;;;21.60;89.00;;;;;;5062060;28;20460;-83
2022/07/14 10:03:02;;;;;;;1.10;1.00;;;21.70;88.50;;;;;;5075620;28;20400;-84
2022/07/14 10:05:30;;;;;;;1.57;1.30;;;21.80;87.60;;;;;;5080448;28;20921;-83
2022/07/14 10:07:58;;;;;;;1.90;1.80;;;21.80;87.70;;;;;;5059444;28;20510;-83
2022/07/14 10:10:24;;;;;;;3.33;1.87;;;21.90;87.40;;;;;;5068757;28;20417;-84
2022/07/14 10:12:50;;;;;;;4.83;1.37;;;21.90;86.90;;;;;;5055954;28;20447;-84
2022/07/14 10:15:16;;;;;;;1.20;0.80;;;22.00;87.60;;;;;;5059504;28;20405;-84
2022/07/14 10:17:42;;;;;;;1.73;1.53;;;22.10;87.40;;;;;;5057081;28;20444;-83
2022/07/14 10:20:11;;;;;;;12.13;1.50;;;22.20;86.10;;;;;;5078553;28;20175;-83
2022/07/14 10:22:37;;;;;;;1.20;1.10;;;22.40;86.10;;;;;;5083759;28;20775;-83
2022/07/14 10:25:05;;;;;;;21.27;3.03;;;22.50;86.00;;;;;;5055165;28;20425;-82
2022/07/14 10:27:31;;;;;;;2.57;1.90;;;22.60;85.20;;;;;;5067859;28;20508;-83
2022/07/14 10:29:58;;;;;;;2.37;2.20;;;22.70;85.40;;;;;;5053814;28;20411;-83
2022/07/14 10:33:05;;;;;;;3.73;1.73;;;22.70;84.90;;;;;;5052764;28;20953;-82
2022/07/14 10:35:42;;;;;;;1.80;1.23;;;22.80;85.60;;;;;;5055601;28;20942;-83
2022/07/14 10:38:29;;;;;;;2.10;1.73;;;22.90;84.90;;;;;;5072823;28;20440;-83
2022/07/14 10:41:21;;;;;;;13.70;2.07;;;23.00;85.20;;;;;;5081270;28;20425;-83
2022/07/14 10:44:01;;;;;;;1.57;1.17;;;23.10;84.10;;;;;;5057363;28;20413;-83
2022/07/14 10:46:33;;;;;;;1.43;1.40;;;23.10;84.40;;;;;;5056813;28;20409;-83
2022/07/14 10:48:59;;;;;;;1.97;1.87;;;23.10;84.70;;;;;;5063534;28;20817;-83
2022/07/14 10:51:28;;;;;;;2.50;2.30;;;23.10;85.30;;;;;;5059077;28;20433;-83
2022/07/14 10:54:08;;;;;;;1.30;1.20;;;23.10;85.70;;;;;;5055375;28;20178;-83
2022/07/14 10:56:35;;;;;;;3.83;1.87;;;23.20;85.70;;;;;;5062566;28;20851;-83
2022/07/14 10:59:26;;;;;;;1.73;1.33;;;23.30;84.90;;;;;;5061912;28;20437;-83
2022/07/14 11:02:10;;;;;;;1.23;1.13;;;23.40;84.90;;;;;;5044429;28;20500;-83
2022/07/14 11:04:58;;;;;;;1.10;1.00;;;23.40;84.40;;;;;;5052263;28;20446;-83
2022/07/14 11:07:38;;;;;;;1.77;1.67;;;23.40;84.60;;;;;;5070911;28;21316;-83
2022/07/14 11:10:28;;;;;;;5.60;1.47;;;23.40;85.00;;;;;;5056130;28;20476;-83
2022/07/14 11:12:59;;;;;;;1.53;1.43;;;23.50;84.60;;;;;;5029272;28;20448;-83
2022/07/14 11:15:40;;;;;;;2.40;2.07;;;23.50;84.30;;;;;;5072374;28;20413;-83
2022/07/14 11:18:17;;;;;;;1.47;1.37;;;23.50;83.40;;;;;;5048181;28;20449;-84
2022/07/14 11:21:07;;;;;;;1.53;1.23;;;23.50;84.00;;;;;;5074759;28;20431;-83
2022/07/14 11:23:33;;;;;;;1.53;1.10;;;23.40;84.40;;;;;;5042690;28;20416;-83
2022/07/14 11:26:03;;;;;;;2.30;1.10;;;23.50;83.70;;;;;;5063145;28;20421;-83
2022/07/14 11:28:32;;;;;;;2.50;2.13;;;23.50;83.80;;;;;;5075252;28;20242;-83
2022/07/14 11:31:17;;;;;;;10.37;1.30;;;23.50;84.60;;;;;;5070890;28;20505;-83
2022/07/14 11:36:33;;;;;;;2.67;1.93;;;23.50;83.80;;;;;;5073760;28;20424;-83
2022/07/14 11:39:18;;;;;;;1.50;1.40;;;23.60;84.10;;;;;;5073541;28;20860;-82
2022/07/14 11:41:49;;;;;;;1.17;1.10;;;23.60;83.50;;;;;;5088749;28;20928;-82
2022/07/14 11:44:36;;;;;;;1.40;1.37;;;23.60;83.10;;;;;;5043417;28;20729;-83
2022/07/14 11:47:07;;;;;;;2.13;1.83;;;23.60;84.30;;;;;;5051601;28;20453;-80
2022/07/14 11:49:33;;;;;;;1.23;1.13;;;23.70;84.10;;;;;;5077059;28;20424;-81
2022/07/14 11:52:00;;;;;;;1.80;1.70;;;23.70;83.30;;;;;;5069276;28;20788;-82
2022/07/14 11:54:27;;;;;;;2.37;2.17;;;23.70;83.20;;;;;;5056222;28;20412;-82
2022/07/14 11:57:09;;;;;;;2.27;1.33;;;23.70;84.00;;;;;;5065097;28;20507;-82
2022/07/14 11:59:40;;;;;;;1.20;1.10;;;23.70;84.00;;;;;;5058820;28;20459;-83
2022/07/14 12:02:07;;;;;;;1.63;1.53;;;23.60;83.40;;;;;;5066037;28;20429;-82
2022/07/14 12:04:33;;;;;;;1.57;1.10;;;23.80;84.60;;;;;;5058780;28;20467;-83
2022/07/14 12:06:59;;;;;;;2.17;1.70;;;23.90;84.60;;;;;;5053947;28;20457;-83
2022/07/14 12:09:32;;;;;;;2.33;1.67;;;24.10;84.60;;;;;;5078406;28;20226;-83
2022/07/14 12:11:58;;;;;;;1.57;1.50;;;24.20;82.50;;;;;;5063415;28;20417;-83
2022/07/14 12:14:24;;;;;;;1.47;1.30;;;24.30;83.00;;;;;;5077932;28;20419;-82
2022/07/14 12:16:50;;;;;;;4.10;1.93;;;24.50;83.90;;;;;;5062865;28;20558;-83
2022/07/14 12:19:26;;;;;;;6.40;2.53;;;24.60;82.10;;;;;;5083034;28;20254;-81
2022/07/14 12:22:00;;;;;;;1.77;1.53;;;24.50;81.50;;;;;;5048401;28;20479;-82
2022/07/14 12:24:26;;;;;;;1.57;1.07;;;24.40;82.50;;;;;;5066616;28;20413;-82
2022/07/14 12:26:55;;;;;;;2.00;1.60;;;24.40;81.60;;;;;;5054282;28;20460;-83
2022/07/14 12:29:22;;;;;;;3.27;2.20;;;24.30;81.70;;;;;;5070591;28;20529;-82
2022/07/14 12:31:48;;;;;;;2.10;1.30;;;24.20;82.50;;;;;;5073321;28;20926;-83
2022/07/14 12:34:15;;;;;;;1.47;1.30;;;24.20;82.90;;;;;;5075059;28;20408;-83
2022/07/14 12:36:41;;;;;;;2.23;2.03;;;24.20;82.20;;;;;;5051550;28;20448;-83
2022/07/14 12:39:09;;;;;;;2.37;2.00;;;24.30;82.70;;;;;;5055944;28;20457;-83
2022/07/14 12:41:37;;;;;;;5.67;2.30;;;24.20;81.70;;;;;;5054845;28;20437;-83
2022/07/14 12:44:08;;;;;;;1.77;1.60;;;24.20;82.70;;;;;;5055356;28;20414;-83
2022/07/14 12:46:34;;;;;;;2.03;1.90;;;24.10;83.60;;;;;;5049125;28;21755;-83
2022/07/14 12:49:05;;;;;;;1.70;1.60;;;24.10;83.30;;;;;;5053550;28;20450;-83
2022/07/14 12:51:37;;;;;;;2.13;1.97;;;24.00;82.90;;;;;;5058673;28;20458;-83
2022/07/14 12:54:10;;;;;;;1.90;1.50;;;24.00;82.90;;;;;;5060200;28;20412;-83
2022/07/14 12:56:51;;;;;;;1.60;1.37;;;24.00;83.10;;;;;;5068410;28;20513;-83
2022/07/14 12:59:24;;;;;;;4.73;2.20;;;24.00;83.00;;;;;;5056394;28;20758;-83
2022/07/14 13:02:03;;;;;;;1.50;1.43;;;24.00;82.80;;;;;;5066934;28;20417;-83
2022/07/14 13:04:35;;;;;;;15.27;2.33;;;24.10;83.70;;;;;;5055487;28;20724;-83